Time;durP1;ratioP1;P1;durP2;ratioP2;P2;SDS_P1;SDS_P2;PMS_P1;PMS_P2;Temp;Humidity;BMP_temperature;BMP_pressure;BME280_temperature;BME280_humidity;BME280_pressure;Samples;Min_cycle;Max_cycle;Signal;HPM_P1;HPM_P2
2020/12/06 00:02:02;;;;;;;348.80;182.45;;;;;;;2.93;100.00;97755.75;5067913;28;20120;-84
2020/12/06 00:04:29;;;;;;;379.55;205.05;;;;;;;2.89;100.00;97750.59;5075276;28;20036;-84
2020/12/06 00:06:54;;;;;;;338.27;176.98;;;;;;;2.78;100.00;97756.19;5067040;28;20051;-83
2020/12/06 00:09:20;;;;;;;357.08;190.70;;;;;;;2.52;100.00;97748.97;5067291;28;20155;-83
2020/12/06 00:11:46;;;;;;;364.50;195.57;;;;;;;2.52;100.00;97750.75;5063563;28;20025;-84
2020/12/06 00:14:11;;;;;;;372.38;203.05;;;;;;;2.51;100.00;97752.53;5071719;28;20027;-84
2020/12/06 00:16:37;;;;;;;340.02;172.25;;;;;;;2.56;100.00;97760.31;5068161;28;20028;-84
2020/12/06 00:19:03;;;;;;;277.88;140.55;;;;;;;2.48;100.00;97752.63;5075898;28;20344;-84
2020/12/06 00:21:28;;;;;;;270.75;128.45;;;;;;;2.46;100.00;97757.03;5074144;28;20570;-83
2020/12/06 00:23:54;;;;;;;234.35;113.18;;;;;;;2.46;100.00;97757.03;5081433;28;20034;-83
2020/12/06 00:26:21;;;;;;;289.60;143.77;;;;;;;2.52;100.00;97761.31;5056549;28;20039;-82
2020/12/06 00:28:47;;;;;;;308.48;152.15;;;;;;;2.64;100.00;97761.88;5067549;28;20059;-83
2020/12/06 00:31:13;;;;;;;272.58;134.25;;;;;;;2.64;100.00;97768.91;5067648;28;20060;-84
2020/12/06 00:33:39;;;;;;;278.80;138.65;;;;;;;2.58;100.00;97767.31;5062856;28;20460;-84
2020/12/06 00:36:05;;;;;;;298.95;148.63;;;;;;;2.68;100.00;97763.47;5078259;28;20026;-84
2020/12/06 00:38:30;;;;;;;320.23;164.18;;;;;;;2.73;100.00;97766.88;5074771;28;20114;-83
2020/12/06 00:40:56;;;;;;;253.98;125.53;;;;;;;2.78;100.00;97764.09;5062511;28;20031;-84
2020/12/06 00:43:22;;;;;;;243.13;115.07;;;;;;;2.86;100.00;97756.81;5071747;28;20028;-84
2020/12/06 00:45:47;;;;;;;219.25;108.00;;;;;;;2.88;100.00;97765.59;5080819;28;20028;-84
2020/12/06 00:48:13;;;;;;;252.63;118.82;;;;;;;2.87;100.00;97760.31;5063879;28;20077;-85
2020/12/06 00:50:38;;;;;;;242.77;117.53;;;;;;;2.92;100.00;97755.81;5074234;28;20447;-85
2020/12/06 00:53:04;;;;;;;247.05;119.25;;;;;;;2.86;100.00;97742.78;5060525;28;20028;-85
2020/12/06 00:55:30;;;;;;;221.90;111.45;;;;;;;2.98;100.00;97760.91;5063061;28;20032;-84
2020/12/06 00:57:55;;;;;;;237.18;113.05;;;;;;;3.04;100.00;97755.44;5063096;28;20107;-85
2020/12/06 01:00:21;;;;;;;224.45;110.35;;;;;;;2.97;100.00;97754.75;5063674;28;20039;-85
2020/12/06 01:02:47;;;;;;;209.45;99.97;;;;;;;2.96;100.00;97763.59;5063046;28;20031;-84
2020/12/06 01:05:12;;;;;;;195.70;93.78;;;;;;;2.85;100.00;97747.19;5063051;28;20084;-85
2020/12/06 01:07:39;;;;;;;228.45;107.05;;;;;;;2.85;100.00;97754.25;5073167;28;20036;-85
2020/12/06 01:10:06;;;;;;;179.45;85.40;;;;;;;2.84;100.00;97757.78;5069345;28;20032;-84
2020/12/06 01:12:31;;;;;;;172.88;79.10;;;;;;;2.83;100.00;97756.06;5058288;28;20101;-83
2020/12/06 01:14:57;;;;;;;166.13;77.70;;;;;;;2.80;100.00;97740.31;5073727;28;20450;-83
2020/12/06 01:17:23;;;;;;;173.52;79.95;;;;;;;2.84;100.00;97737.53;5072399;28;20093;-84
2020/12/06 01:19:48;;;;;;;152.13;71.18;;;;;;;2.87;100.00;97742.72;5067149;28;20027;-85
2020/12/06 01:22:14;;;;;;;153.10;71.13;;;;;;;3.04;100.00;97740.47;5067683;28;20028;-83
2020/12/06 01:24:39;;;;;;;190.30;89.00;;;;;;;2.97;100.00;97740.69;5065789;28;20032;-84
2020/12/06 01:27:05;;;;;;;191.23;91.43;;;;;;;2.97;100.00;97748.59;5063297;28;20032;-84
2020/12/06 01:29:31;;;;;;;206.70;103.45;;;;;;;3.01;100.00;97742.34;5063533;28;20036;-85
2020/12/06 01:31:56;;;;;;;219.73;105.57;;;;;;;3.01;100.00;97747.63;5071572;28;20032;-84
2020/12/06 01:34:22;;;;;;;220.98;107.90;;;;;;;3.01;100.00;97745.84;5086858;28;20475;-83
2020/12/06 01:36:51;;;;;;;257.02;130.65;;;;;;;3.00;100.00;97743.22;5066577;28;20028;-84
2020/12/06 01:39:18;;;;;;;220.50;109.35;;;;;;;3.10;100.00;97744.69;5068584;28;20025;-84
2020/12/06 01:41:43;;;;;;;217.77;109.60;;;;;;;3.06;100.00;97735.13;5067373;28;20457;-84
2020/12/06 01:44:09;;;;;;;238.13;113.90;;;;;;;3.20;100.00;97751.44;5088955;28;20028;-85
2020/12/06 01:46:38;;;;;;;257.70;125.32;;;;;;;3.28;100.00;97745.03;5085148;28;20024;-83
2020/12/06 01:49:05;;;;;;;240.88;117.90;;;;;;;3.29;100.00;97751.19;5062944;28;20016;-86
2020/12/06 01:51:33;;;;;;;257.83;131.82;;;;;;;3.36;100.00;97739.50;5078817;28;20036;-85
2020/12/06 01:53:58;;;;;;;246.48;118.00;;;;;;;3.43;100.00;97742.81;5072346;28;20032;-84
2020/12/06 01:56:24;;;;;;;261.20;128.98;;;;;;;3.52;100.00;97740.75;5063225;28;20101;-84
2020/12/06 01:58:50;;;;;;;263.38;132.32;;;;;;;3.48;100.00;97741.75;5065357;28;20089;-84
2020/12/06 02:01:15;;;;;;;289.27;143.02;;;;;;;3.56;100.00;97741.53;5060833;28;20166;-84
2020/12/06 02:03:41;;;;;;;277.23;136.65;;;;;;;3.63;100.00;97738.63;5072711;28;20028;-84
2020/12/06 02:06:07;;;;;;;266.70;130.13;;;;;;;3.67;100.00;97742.91;5062542;28;20479;-85
2020/12/06 02:08:34;;;;;;;259.23;129.27;;;;;;;3.66;100.00;97751.75;5060897;28;20028;-85
2020/12/06 02:11:00;;;;;;;292.55;139.50;;;;;;;3.68;100.00;97744.66;5078289;28;20028;-85
2020/12/06 02:13:25;;;;;;;272.75;133.35;;;;;;;3.60;100.00;97736.09;5071724;28;20094;-85
2020/12/06 02:15:51;;;;;;;259.55;128.73;;;;;;;3.60;100.00;97740.53;5058587;28;20511;-85
2020/12/06 02:18:17;;;;;;;272.55;128.15;;;;;;;3.72;100.00;97746.28;5067396;28;20052;-85
2020/12/06 02:20:44;;;;;;;264.35;130.93;;;;;;;3.80;100.00;97744.28;5067305;28;20032;-84
2020/12/06 02:23:10;;;;;;;261.80;130.32;;;;;;;3.73;100.00;97732.16;5062335;28;20081;-84
2020/12/06 02:25:42;;;;;;;261.77;129.23;;;;;;;3.77;100.00;97735.56;5069764;28;20042;-85
2020/12/06 02:28:08;;;;;;;255.70;123.18;;;;;;;3.76;100.00;97726.75;5072439;28;20024;-84
2020/12/06 02:30:35;;;;;;;259.98;125.22;;;;;;;3.78;100.00;97735.50;5078875;28;20093;-84
2020/12/06 02:33:01;;;;;;;265.48;129.82;;;;;;;3.84;100.00;97739.75;5071250;28;20096;-84
2020/12/06 02:35:29;;;;;;;263.60;129.32;;;;;;;3.86;100.00;97743.19;5079040;28;20455;-84
2020/12/06 02:37:54;;;;;;;247.13;122.70;;;;;;;3.66;100.00;97741.19;5061781;28;20033;-84
2020/12/06 02:40:20;;;;;;;231.38;116.45;;;;;;;3.53;100.00;97739.84;5079092;28;20518;-84
2020/12/06 02:42:45;;;;;;;238.93;116.90;;;;;;;3.49;100.00;97743.50;5068316;28;20032;-83
2020/12/06 02:45:11;;;;;;;225.35;112.90;;;;;;;3.46;100.00;97735.66;5090817;28;20039;-84
2020/12/06 02:47:37;;;;;;;217.63;107.85;;;;;;;3.58;100.00;97735.28;5066174;28;20032;-85
2020/12/06 02:50:04;;;;;;;187.07;93.30;;;;;;;3.55;100.00;97731.84;5065342;28;20032;-84
2020/12/06 02:52:29;;;;;;;176.93;85.57;;;;;;;3.64;100.00;97727.16;5072225;28;20036;-84
2020/12/06 02:54:55;;;;;;;158.20;79.30;;;;;;;3.62;100.00;97731.63;5068862;28;20123;-84
2020/12/06 02:57:20;;;;;;;198.75;92.90;;;;;;;3.68;100.00;97727.94;5077531;28;20036;-85
2020/12/06 02:59:46;;;;;;;203.23;98.30;;;;;;;3.69;100.00;97735.78;5085928;28;20056;-84
2020/12/06 03:02:12;;;;;;;201.98;100.38;;;;;;;3.72;100.00;97732.22;5085940;28;20023;-85
2020/12/06 03:04:37;;;;;;;172.73;85.80;;;;;;;3.73;100.00;97725.97;5061797;28;20383;-85
2020/12/06 03:07:03;;;;;;;194.75;91.07;;;;;;;3.67;100.00;97740.28;5082172;28;20043;-85
2020/12/06 03:09:28;;;;;;;186.85;86.53;;;;;;;3.77;100.00;97717.91;5062996;28;20065;-84
2020/12/06 03:11:54;;;;;;;207.68;100.32;;;;;;;3.80;100.00;97720.47;5075260;28;20115;-85
2020/12/06 03:14:20;;;;;;;219.88;96.28;;;;;;;3.89;100.00;97721.06;5064862;28;20131;-83
2020/12/06 03:16:45;;;;;;;205.80;98.75;;;;;;;3.84;100.00;97721.22;5074395;28;20495;-84
2020/12/06 03:19:11;;;;;;;186.43;90.53;;;;;;;3.76;100.00;97705.59;5085573;28;20495;-84
2020/12/06 03:21:36;;;;;;;202.30;98.45;;;;;;;3.73;100.00;97724.22;5078054;28;20060;-84
2020/12/06 03:24:02;;;;;;;183.35;88.97;;;;;;;3.71;100.00;97718.13;5064868;28;20127;-84
2020/12/06 03:26:27;;;;;;;187.27;88.07;;;;;;;3.77;100.00;97720.56;5056975;28;20027;-84
2020/12/06 03:28:53;;;;;;;183.85;84.72;;;;;;;3.74;100.00;97723.31;5055995;28;20029;-76
2020/12/06 03:31:19;;;;;;;171.38;78.03;;;;;;;3.63;100.00;97725.41;5083606;28;20447;-77
2020/12/06 03:33:44;;;;;;;178.15;81.88;;;;;;;3.65;100.00;97720.97;5091451;28;20107;-77
2020/12/06 03:36:10;;;;;;;180.73;81.75;;;;;;;3.67;100.00;97719.13;5091641;28;20149;-77
2020/12/06 03:38:35;;;;;;;167.13;74.25;;;;;;;3.73;100.00;97724.22;5091119;28;20051;-77
2020/12/06 03:41:01;;;;;;;241.95;107.68;;;;;;;3.81;100.00;97723.97;5055996;28;20036;-76
2020/12/06 03:43:27;;;;;;;261.10;124.20;;;;;;;3.87;100.00;97720.25;5060135;28;20028;-77
2020/12/06 03:45:52;;;;;;;281.48;134.68;;;;;;;3.83;100.00;97712.44;5074201;28;20110;-77
2020/12/06 03:48:18;;;;;;;269.67;130.98;;;;;;;3.93;100.00;97713.00;5054045;28;20024;-77
2020/12/06 03:50:44;;;;;;;252.35;123.35;;;;;;;3.99;100.00;97711.91;5054008;28;20029;-77
2020/12/06 03:53:09;;;;;;;252.93;124.18;;;;;;;4.01;100.00;97707.44;5090012;28;20081;-77
2020/12/06 03:55:35;;;;;;;282.48;141.20;;;;;;;4.02;100.00;97711.81;5084771;28;20032;-76
2020/12/06 03:58:00;;;;;;;240.15;117.93;;;;;;;4.15;100.00;97719.28;5078754;28;20615;-76
2020/12/06 04:00:26;;;;;;;239.35;125.35;;;;;;;4.24;100.00;97732.22;5070191;28;20039;-76
2020/12/06 04:02:52;;;;;;;246.70;123.03;;;;;;;4.20;100.00;97716.50;5061595;28;20036;-77
2020/12/06 04:05:20;;;;;;;254.38;126.68;;;;;;;4.25;100.00;97728.63;5053579;28;20036;-76
2020/12/06 04:07:50;;;;;;;232.38;116.43;;;;;;;4.24;100.00;97719.00;5053954;28;20068;-76
2020/12/06 04:10:19;;;;;;;228.55;113.25;;;;;;;4.07;100.00;97718.69;5053739;28;20472;-76
2020/12/06 04:12:45;;;;;;;240.88;120.15;;;;;;;4.09;100.00;97718.66;5053455;28;20055;-77
2020/12/06 04:15:11;;;;;;;219.50;111.32;;;;;;;4.15;100.00;97729.03;5053588;28;20032;-75
2020/12/06 04:17:38;;;;;;;232.40;113.57;;;;;;;4.12;100.00;97740.56;5053465;28;20044;-76
2020/12/06 04:20:05;;;;;;;227.30;113.65;;;;;;;4.06;100.00;97730.16;5054960;28;20028;-75
2020/12/06 04:22:30;;;;;;;214.45;104.88;;;;;;;4.12;100.00;97727.31;5090312;28;20028;-74
2020/12/06 04:24:56;;;;;;;198.98;99.57;;;;;;;4.14;100.00;97728.16;5056645;28;20036;-78
2020/12/06 04:27:22;;;;;;;182.20;94.15;;;;;;;4.11;100.00;97722.97;5052538;28;20074;-76
2020/12/06 04:29:47;;;;;;;188.88;95.82;;;;;;;4.00;100.00;97718.94;5060341;28;20071;-77
2020/12/06 04:32:13;;;;;;;193.60;96.40;;;;;;;4.07;100.00;97731.03;5079957;28;20538;-76
2020/12/06 04:34:38;;;;;;;185.05;92.75;;;;;;;4.13;100.00;97730.84;5061639;28;20466;-77
2020/12/06 04:37:05;;;;;;;184.07;93.80;;;;;;;4.04;100.00;97732.00;5061773;28;20032;-77
2020/12/06 04:39:31;;;;;;;195.27;101.95;;;;;;;4.01;100.00;97725.94;5054159;28;20081;-78
2020/12/06 04:41:57;;;;;;;197.07;101.85;;;;;;;3.90;100.00;97722.81;5070815;28;20021;-77
2020/12/06 04:44:23;;;;;;;194.80;98.13;;;;;;;3.91;100.00;97719.25;5070498;28;20032;-77
2020/12/06 04:46:49;;;;;;;204.00;103.05;;;;;;;3.87;100.00;97728.19;5069736;28;20438;-77
2020/12/06 04:49:47;;;;;;;204.52;103.13;;;;;;;3.92;100.00;97732.41;5089474;28;20085;-75
2020/12/06 04:52:17;;;;;;;184.38;94.88;;;;;;;4.01;100.00;97736.53;5052494;28;20547;-77
2020/12/06 04:54:49;;;;;;;197.98;102.60;;;;;;;3.92;100.00;97731.53;5070995;28;20531;-75
2020/12/06 04:57:17;;;;;;;189.48;98.50;;;;;;;3.98;100.00;97731.34;5062976;28;20035;-76
2020/12/06 04:59:46;;;;;;;202.23;99.93;;;;;;;4.14;100.00;97735.22;5054192;28;20157;-77
2020/12/06 05:02:15;;;;;;;201.13;103.40;;;;;;;4.20;100.00;97735.00;5070104;28;20131;-78
2020/12/06 05:04:45;;;;;;;190.15;95.47;;;;;;;4.25;100.00;97738.38;5058624;28;20369;-76
2020/12/06 05:07:10;;;;;;;191.85;97.97;;;;;;;4.17;100.00;97730.69;5091496;28;20035;-87
2020/12/06 05:09:37;;;;;;;190.95;96.15;;;;;;;4.11;100.00;97730.03;5063210;28;20032;-88
2020/12/06 05:12:04;;;;;;;187.48;99.60;;;;;;;4.14;100.00;97740.50;5056054;28;20025;-86
2020/12/06 05:14:30;;;;;;;189.07;98.45;;;;;;;4.25;100.00;97747.19;5040303;28;20039;-83
2020/12/06 05:16:56;;;;;;;204.48;104.05;;;;;;;4.26;100.00;97745.41;5055855;28;20024;-82
2020/12/06 05:19:26;;;;;;;231.98;119.57;;;;;;;4.31;100.00;97740.78;5071120;28;20038;-81
2020/12/06 05:21:52;;;;;;;234.43;117.95;;;;;;;4.25;100.00;97747.19;5077798;28;20024;-75
2020/12/06 05:24:18;;;;;;;208.15;107.18;;;;;;;4.21;100.00;97756.16;5066909;28;20380;-86
2020/12/06 05:26:44;;;;;;;211.20;106.07;;;;;;;4.19;100.00;97730.63;5053658;28;20028;-77
2020/12/06 05:29:09;;;;;;;223.13;111.90;;;;;;;4.33;100.00;97745.16;5069041;28;20024;-77
2020/12/06 05:31:35;;;;;;;227.10;113.18;;;;;;;4.44;100.00;97739.47;5058688;28;20099;-78
2020/12/06 05:34:00;;;;;;;220.93;110.82;;;;;;;4.53;100.00;97751.53;5067562;28;20040;-78
2020/12/06 05:36:26;;;;;;;261.30;129.07;;;;;;;4.57;100.00;97751.38;5070336;28;20158;-78
2020/12/06 05:38:52;;;;;;;222.27;115.68;;;;;;;4.60;100.00;97755.69;5074009;28;20024;-77
2020/12/06 05:41:17;;;;;;;220.27;113.65;;;;;;;4.62;100.00;97754.72;5074602;28;20032;-83
2020/12/06 05:43:44;;;;;;;271.92;137.48;;;;;;;4.68;100.00;97765.09;5071485;28;20028;-83
2020/12/06 05:46:14;;;;;;;226.48;119.85;;;;;;;4.72;100.00;97758.78;5077994;28;20032;-84
2020/12/06 05:48:42;;;;;;;223.52;114.22;;;;;;;4.81;99.51;97762.88;5062602;28;20092;-82
2020/12/06 05:51:08;;;;;;;233.18;120.72;;;;;;;4.82;99.61;97761.97;5072837;28;20026;-85
2020/12/06 05:53:35;;;;;;;232.00;122.05;;;;;;;4.72;99.78;97753.47;5074439;28;20028;-85
2020/12/06 05:56:20;;;;;;;280.20;135.90;;;;;;;4.84;99.59;97757.47;5075904;28;20476;-87
2020/12/06 05:58:51;;;;;;;260.30;132.93;;;;;;;4.84;99.44;97752.16;5079622;28;20024;-87
2020/12/06 06:01:18;;;;;;;274.65;139.30;;;;;;;4.90;99.01;97757.25;5076773;28;20487;-78
2020/12/06 06:03:47;;;;;;;270.30;140.63;;;;;;;4.99;98.73;97764.88;5068037;28;20088;-77
2020/12/06 06:06:23;;;;;;;241.82;125.07;;;;;;;5.00;98.51;97781.63;5077431;28;20028;-85
2020/12/06 06:08:52;;;;;;;287.08;147.50;;;;;;;4.83;98.74;97768.97;5090539;28;20020;-88
2020/12/06 06:11:26;;;;;;;298.27;158.70;;;;;;;4.92;98.87;97777.47;5073054;28;20148;-86
2020/12/06 06:13:54;;;;;;;317.65;165.85;;;;;;;4.93;98.89;97778.34;5078893;28;20526;-87
2020/12/06 06:16:26;;;;;;;314.88;166.60;;;;;;;4.95;99.07;97776.53;5079252;28;20043;-87
2020/12/06 06:18:53;;;;;;;325.60;173.45;;;;;;;4.99;99.05;97777.25;5064766;28;20035;-77
2020/12/06 06:21:22;;;;;;;322.13;168.88;;;;;;;5.08;98.41;97787.50;5085023;28;20506;-77
2020/12/06 06:23:49;;;;;;;310.27;159.40;;;;;;;5.16;98.48;97785.47;5089241;28;20025;-76
2020/12/06 06:26:16;;;;;;;295.02;154.63;;;;;;;5.19;98.56;97785.34;5072605;28;20503;-78
2020/12/06 06:28:43;;;;;;;283.30;152.75;;;;;;;5.17;98.67;97789.84;5084934;28;20447;-77
2020/12/06 06:31:11;;;;;;;307.13;166.68;;;;;;;5.26;98.66;97787.72;5085861;28;20517;-77
2020/12/06 06:33:38;;;;;;;296.48;157.85;;;;;;;5.39;97.63;97796.06;5066717;28;20038;-75
2020/12/06 06:36:07;;;;;;;303.65;161.77;;;;;;;5.28;97.93;97800.94;5076418;28;20024;-77
2020/12/06 06:38:38;;;;;;;298.98;158.48;;;;;;;5.22;99.01;97794.06;5065323;28;20024;-76
2020/12/06 06:41:06;;;;;;;303.30;164.80;;;;;;;5.19;98.99;97791.53;5062700;28;20111;-76
2020/12/06 06:43:37;;;;;;;308.33;162.13;;;;;;;5.21;99.07;97799.41;5092542;28;20036;-75
2020/12/06 06:46:14;;;;;;;305.85;162.95;;;;;;;5.27;98.53;97786.78;5079398;28;20032;-86
2020/12/06 06:48:40;;;;;;;293.05;162.20;;;;;;;5.65;97.08;97803.94;5060939;28;20122;-87
2020/12/06 06:51:06;;;;;;;313.33;171.98;;;;;;;5.78;96.40;97802.50;5095195;28;20394;-86
2020/12/06 06:53:32;;;;;;;294.77;155.65;;;;;;;5.90;95.48;97803.88;5061301;28;20032;-85
2020/12/06 06:55:59;;;;;;;287.80;154.05;;;;;;;5.93;94.89;97809.94;5072819;28;20043;-84
2020/12/06 06:58:28;;;;;;;307.67;163.68;;;;;;;6.06;94.42;97801.47;5065959;28;20028;-85
2020/12/06 07:01:15;;;;;;;319.92;175.18;;;;;;;6.10;94.39;97805.72;5049322;28;20025;-85
2020/12/06 07:03:50;;;;;;;335.98;183.75;;;;;;;6.06;94.51;97812.09;5072405;28;20036;-86
2020/12/06 07:06:48;;;;;;;326.85;174.13;;;;;;;6.09;95.20;97812.81;5071095;28;20408;-87
2020/12/06 07:09:25;;;;;;;299.65;156.25;;;;;;;6.18;94.42;97799.19;5076638;28;20028;-86
2020/12/06 07:11:53;;;;;;;285.83;154.77;;;;;;;6.31;94.39;97795.09;5078018;28;20164;-86
2020/12/06 07:14:21;;;;;;;292.92;157.13;;;;;;;6.39;93.73;97789.47;5076880;28;20656;-84
2020/12/06 07:16:47;;;;;;;273.33;148.88;;;;;;;6.59;92.63;97794.81;5076607;28;20467;-86
2020/12/06 07:19:13;;;;;;;280.35;148.35;;;;;;;6.73;92.18;97786.25;5068422;28;20052;-87
2020/12/06 07:21:38;;;;;;;262.65;136.48;;;;;;;6.90;91.19;97792.56;5068072;28;20026;-86
2020/12/06 07:24:05;;;;;;;253.52;140.48;;;;;;;7.09;90.62;97792.63;5070837;28;20024;-85
2020/12/06 07:26:31;;;;;;;251.13;137.07;;;;;;;7.00;90.86;97793.91;5066927;28;20549;-86
2020/12/06 07:28:57;;;;;;;244.95;133.45;;;;;;;6.84;91.90;97784.88;5058330;28;20033;-84
2020/12/06 07:31:24;;;;;;;251.13;137.80;;;;;;;6.97;91.41;97791.38;5084375;28;20503;-86
2020/12/06 07:33:50;;;;;;;229.18;122.50;;;;;;;7.26;90.05;97789.25;5062770;28;20028;-84
2020/12/06 07:36:16;;;;;;;259.85;139.43;;;;;;;7.31;89.42;97787.22;5077163;28;20031;-85
2020/12/06 07:38:42;;;;;;;209.13;113.38;;;;;;;7.55;88.28;97786.97;5085342;28;20016;-86
2020/12/06 07:41:08;;;;;;;192.43;104.70;;;;;;;7.50;88.83;97777.47;5063174;28;20044;-86
2020/12/06 07:43:34;;;;;;;204.48;111.18;;;;;;;7.72;88.44;97788.00;5065379;28;20093;-85
2020/12/06 07:46:16;;;;;;;254.05;131.48;;;;;;;7.84;87.38;97777.63;5088652;28;20039;-86
2020/12/06 07:48:42;;;;;;;264.73;144.63;;;;;;;7.85;87.18;97784.66;5072889;28;20628;-86
2020/12/06 07:51:08;;;;;;;262.63;143.07;;;;;;;8.18;85.79;97783.03;5055865;28;20119;-85
2020/12/06 07:53:50;;;;;;;223.30;121.40;;;;;;;8.46;83.73;97776.41;5073042;28;20051;-86
2020/12/06 07:56:18;;;;;;;235.05;130.02;;;;;;;8.66;83.15;97778.94;5067536;28;20027;-87
2020/12/06 07:58:54;;;;;;;288.67;157.38;;;;;;;9.07;81.87;97782.16;5074605;28;20036;-85
2020/12/06 08:01:21;;;;;;;274.77;152.93;;;;;;;9.37;79.73;97788.53;5088729;28;20506;-85
2020/12/06 08:03:49;;;;;;;222.95;124.80;;;;;;;9.65;78.22;97782.56;5058355;28;20038;-86
2020/12/06 08:06:16;;;;;;;265.00;151.13;;;;;;;9.63;76.99;97769.28;5061231;28;20024;-86
2020/12/06 08:08:43;;;;;;;321.35;187.98;;;;;;;9.72;76.66;97778.63;5071266;28;20114;-85
2020/12/06 08:11:10;;;;;;;335.88;210.23;;;;;;;9.52;77.44;97777.03;5063809;28;20043;-85
2020/12/06 08:13:36;;;;;;;364.73;222.90;;;;;;;9.52;77.75;97781.50;5064094;28;20027;-85
2020/12/06 08:16:09;;;;;;;351.35;216.98;;;;;;;9.52;77.78;97784.16;5058242;28;20118;-86
2020/12/06 08:18:34;;;;;;;357.88;226.82;;;;;;;9.17;80.01;97780.69;5069532;28;20027;-86
2020/12/06 08:21:00;;;;;;;343.55;215.07;;;;;;;9.30;78.74;97770.25;5056311;28;20089;-87
2020/12/06 08:23:32;;;;;;;341.40;212.55;;;;;;;9.56;78.29;97777.72;5080267;28;20491;-86
2020/12/06 08:25:58;;;;;;;363.67;228.32;;;;;;;9.82;77.79;97769.13;5082962;28;20027;-87
2020/12/06 08:28:24;;;;;;;353.00;220.07;;;;;;;10.11;77.13;97765.72;5074972;28;20036;-88
2020/12/06 08:30:49;;;;;;;364.50;230.20;;;;;;;10.20;77.27;97764.34;5059688;28;20052;-85
2020/12/06 08:33:22;;;;;;;368.02;229.85;;;;;;;10.60;75.93;97770.94;5077595;28;20031;-84
2020/12/06 08:35:51;;;;;;;327.75;202.88;;;;;;;10.96;72.69;97776.78;5072532;28;20036;-86
2020/12/06 08:38:32;;;;;;;289.48;174.07;;;;;;;11.44;71.14;97779.16;5064756;28;20032;-86
2020/12/06 08:41:06;;;;;;;277.88;163.02;;;;;;;12.00;69.16;97776.59;5066015;28;20032;-85
2020/12/06 08:43:51;;;;;;;237.02;141.90;;;;;;;11.94;69.92;97767.09;5090375;28;20477;-86
2020/12/06 08:46:21;;;;;;;213.88;120.95;;;;;;;11.74;70.24;97767.53;5075179;28;20469;-86
2020/12/06 08:48:48;;;;;;;203.88;120.97;;;;;;;12.36;68.25;97775.09;5070143;28;20101;-86
2020/12/06 08:51:37;;;;;;;197.80;119.93;;;;;;;12.72;66.99;97757.50;5072905;28;20502;-86
2020/12/06 08:54:04;;;;;;;203.10;123.70;;;;;;;12.96;65.37;97764.75;5067589;28;20038;-85
2020/12/06 08:56:40;;;;;;;190.90;117.47;;;;;;;12.82;67.25;97761.28;5066871;28;20035;-85
2020/12/06 08:59:16;;;;;;;168.18;101.05;;;;;;;12.57;66.35;97764.75;5064456;28;20027;-85
2020/12/06 09:01:52;;;;;;;163.05;100.90;;;;;;;12.83;67.43;97752.25;5063723;28;20028;-84
2020/12/06 09:04:18;;;;;;;142.10;86.07;;;;;;;12.73;66.51;97745.81;5060566;28;20055;-86
2020/12/06 09:06:45;;;;;;;148.02;87.40;;;;;;;13.10;67.72;97750.44;5065642;28;20564;-85
2020/12/06 09:09:10;;;;;;;138.88;79.47;;;;;;;13.40;63.99;97744.75;5058648;28;20030;-85
2020/12/06 09:11:36;;;;;;;110.20;63.78;;;;;;;13.16;65.33;97741.94;5072458;28;20335;-85
2020/12/06 09:14:02;;;;;;;115.38;63.40;;;;;;;12.51;68.66;97743.69;5067221;28;20035;-85
2020/12/06 09:16:28;;;;;;;124.15;70.15;;;;;;;12.08;69.08;97742.09;5072006;28;20024;-84
2020/12/06 09:18:53;;;;;;;125.00;71.93;;;;;;;11.60;71.09;97724.63;5067256;28;20035;-83
2020/12/06 09:21:19;;;;;;;129.48;75.68;;;;;;;11.79;71.12;97722.53;5085348;28;20031;-85
2020/12/06 09:23:45;;;;;;;149.02;91.03;;;;;;;11.92;72.18;97720.78;5075234;28;20058;-85
2020/12/06 09:26:11;;;;;;;156.43;93.25;;;;;;;11.63;72.52;97719.09;5065919;28;20036;-85
2020/12/06 09:28:37;;;;;;;175.82;104.28;;;;;;;11.57;73.05;97709.59;5077851;28;20028;-86
2020/12/06 09:31:02;;;;;;;148.27;90.70;;;;;;;11.67;72.58;97704.53;5073408;28;20062;-85
2020/12/06 09:33:28;;;;;;;137.05;78.68;;;;;;;11.67;72.88;97712.56;5085828;28;20044;-86
2020/12/06 09:35:54;;;;;;;102.97;60.67;;;;;;;11.50;73.70;97702.94;5066282;28;20063;-85
2020/12/06 09:38:20;;;;;;;99.00;58.92;;;;;;;11.01;75.75;97705.13;5084447;28;20034;-86
2020/12/06 09:40:46;;;;;;;107.57;61.38;;;;;;;11.07;77.04;97704.75;5079243;28;20021;-86
2020/12/06 09:43:11;;;;;;;183.50;111.07;;;;;;;11.24;76.93;97692.97;5078891;28;20543;-84
2020/12/06 09:45:37;;;;;;;181.50;113.35;;;;;;;11.31;75.50;97692.50;5057301;28;20025;-85
2020/12/06 09:48:04;;;;;;;179.70;113.40;;;;;;;11.33;75.05;97690.59;5072969;28;20431;-85
2020/12/06 09:50:29;;;;;;;188.73;114.55;;;;;;;11.35;75.65;97685.97;5063031;28;20614;-86
2020/12/06 09:52:55;;;;;;;190.60;115.00;;;;;;;11.47;74.63;97680.84;5064840;28;20047;-84
2020/12/06 09:55:21;;;;;;;184.10;107.97;;;;;;;11.35;75.31;97677.94;5068444;28;20039;-86
2020/12/06 09:57:47;;;;;;;172.45;100.03;;;;;;;11.42;75.36;97676.63;5070279;28;20048;-84
2020/12/06 10:00:13;;;;;;;127.63;74.50;;;;;;;11.46;75.69;97657.66;5059496;28;20071;-84
2020/12/06 10:02:38;;;;;;;121.50;71.22;;;;;;;11.84;75.83;97664.16;5086711;28;20407;-85
2020/12/06 10:05:04;;;;;;;124.07;73.53;;;;;;;12.50;71.79;97662.34;5063148;28;20111;-85
2020/12/06 10:07:30;;;;;;;99.13;55.85;;;;;;;12.74;71.23;97656.25;5061183;28;20032;-85
2020/12/06 10:09:55;;;;;;;85.05;49.15;;;;;;;12.52;71.29;97660.41;5059642;28;20025;-85
2020/12/06 10:12:21;;;;;;;248.63;149.00;;;;;;;12.54;71.16;97660.31;5067004;28;20036;-84
2020/12/06 10:14:47;;;;;;;77.38;45.58;;;;;;;12.98;69.48;97643.84;5069325;28;20531;-88
2020/12/06 10:17:12;;;;;;;71.30;41.75;;;;;;;13.24;68.88;97650.94;5059809;28;20062;-86
2020/12/06 10:19:38;;;;;;;77.13;42.08;;;;;;;13.29;68.54;97648.75;5069096;28;20027;-85
2020/12/06 10:22:04;;;;;;;78.22;42.75;;;;;;;13.46;67.81;97647.56;5061631;28;20033;-85
2020/12/06 10:24:30;;;;;;;57.85;34.17;;;;;;;13.70;67.18;97647.63;5073024;28;20028;-85
2020/12/06 10:26:56;;;;;;;56.03;32.72;;;;;;;13.61;67.25;97646.47;5064489;28;20040;-85
2020/12/06 10:29:22;;;;;;;66.18;36.83;;;;;;;13.66;67.17;97635.38;5089489;28;20024;-86
2020/12/06 10:31:55;;;;;;;89.30;51.22;;;;;;;13.53;67.42;97635.41;5067500;28;20489;-84
2020/12/06 10:34:22;;;;;;;148.20;79.25;;;;;;;13.38;68.01;97631.97;5074345;28;20172;-85
2020/12/06 10:36:49;;;;;;;129.18;72.18;;;;;;;13.19;69.30;97628.91;5076067;28;20557;-85
2020/12/06 10:41:59;;;;;;;108.78;59.83;;;;;;;13.01;71.02;97639.06;5092622;28;20059;-85
2020/12/06 10:44:25;;;;;;;118.43;68.13;;;;;;;13.01;70.52;97627.50;5066825;28;20488;-84
2020/12/06 10:46:52;;;;;;;105.75;61.50;;;;;;;13.09;71.24;97625.16;5072203;28;20093;-84
2020/12/06 10:49:19;;;;;;;114.82;63.88;;;;;;;13.23;70.87;97619.66;5066811;28;20104;-85
2020/12/06 10:51:45;;;;;;;133.07;70.72;;;;;;;13.30;70.45;97618.25;5066823;28;20111;-84
2020/12/06 10:54:11;;;;;;;148.07;85.57;;;;;;;13.22;70.42;97615.28;5059960;28;20032;-85
2020/12/06 10:56:38;;;;;;;153.38;93.35;;;;;;;12.81;71.99;97609.22;5055303;28;20025;-84
2020/12/06 10:59:04;;;;;;;133.65;78.88;;;;;;;12.64;72.85;97601.50;5057038;28;20028;-84
2020/12/06 11:01:31;;;;;;;138.98;79.35;;;;;;;12.58;73.30;97604.63;5062223;28;20031;-83
2020/12/06 11:03:57;;;;;;;125.93;73.43;;;;;;;12.31;74.40;97607.34;5073719;28;20392;-84
2020/12/06 11:06:24;;;;;;;93.93;55.17;;;;;;;12.22;74.52;97595.41;5063506;28;20546;-85
2020/12/06 11:08:50;;;;;;;101.43;57.97;;;;;;;12.11;75.37;97587.25;5053218;28;20024;-83
2020/12/06 11:11:17;;;;;;;99.75;57.28;;;;;;;12.20;76.04;97588.44;5063857;28;20126;-78